sensor_id;sensor_type;location;lat;lon;timestamp;P1;durP1;ratioP1;P2;durP2;ratioP2
63975;SDS011;50167;47.958;21.780;2023-08-12T00:01:22;6.77;;;3.67;;
63975;SDS011;50167;47.958;21.780;2023-08-12T00:03:50;8.17;;;3.37;;
63975;SDS011;50167;47.958;21.780;2023-08-12T00:06:17;5.83;;;3.40;;
63975;SDS011;50167;47.958;21.780;2023-08-12T00:08:43;3.60;;;3.17;;
63975;SDS011;50167;47.958;21.780;2023-08-12T00:11:09;5.67;;;2.73;;
63975;SDS011;50167;47.958;21.780;2023-08-12T00:13:36;4.37;;;3.63;;
63975;SDS011;50167;47.958;21.780;2023-08-12T00:16:02;6.87;;;3.97;;
63975;SDS011;50167;47.958;21.780;2023-08-12T00:18:29;7.67;;;3.50;;
63975;SDS011;50167;47.958;21.780;2023-08-12T00:20:55;5.87;;;3.60;;
63975;SDS011;50167;47.958;21.780;2023-08-12T00:23:22;5.67;;;3.60;;
63975;SDS011;50167;47.958;21.780;2023-08-12T00:25:49;7.13;;;4.00;;
63975;SDS011;50167;47.958;21.780;2023-08-12T00:28:15;8.00;;;3.47;;
63975;SDS011;50167;47.958;21.780;2023-08-12T00:30:41;7.40;;;3.20;;
63975;SDS011;50167;47.958;21.780;2023-08-12T00:33:07;5.23;;;3.60;;
63975;SDS011;50167;47.958;21.780;2023-08-12T00:35:33;7.60;;;3.17;;
63975;SDS011;50167;47.958;21.780;2023-08-12T00:38:00;4.40;;;3.00;;
63975;SDS011;50167;47.958;21.780;2023-08-12T00:40:26;6.87;;;3.40;;
63975;SDS011;50167;47.958;21.780;2023-08-12T00:42:52;4.37;;;3.00;;
63975;SDS011;50167;47.958;21.780;2023-08-12T00:45:18;4.67;;;3.53;;
63975;SDS011;50167;47.958;21.780;2023-08-12T00:47:45;6.77;;;3.30;;
63975;SDS011;50167;47.958;21.780;2023-08-12T00:50:12;6.33;;;3.10;;
63975;SDS011;50167;47.958;21.780;2023-08-12T00:52:41;5.90;;;3.20;;
63975;SDS011;50167;47.958;21.780;2023-08-12T00:55:07;10.73;;;3.73;;
63975;SDS011;50167;47.958;21.780;2023-08-12T00:57:35;8.23;;;3.63;;
63975;SDS011;50167;47.958;21.780;2023-08-12T01:00:02;4.90;;;3.20;;
63975;SDS011;50167;47.958;21.780;2023-08-12T01:02:29;6.97;;;4.00;;
63975;SDS011;50167;47.958;21.780;2023-08-12T01:04:56;7.80;;;3.30;;
63975;SDS011;50167;47.958;21.780;2023-08-12T01:07:22;9.87;;;4.43;;
63975;SDS011;50167;47.958;21.780;2023-08-12T01:09:49;5.23;;;3.40;;
63975;SDS011;50167;47.958;21.780;2023-08-12T01:12:19;6.60;;;3.17;;
63975;SDS011;50167;47.958;21.780;2023-08-12T01:15:05;6.80;;;3.80;;
63975;SDS011;50167;47.958;21.780;2023-08-12T01:17:51;6.57;;;3.10;;
63975;SDS011;50167;47.958;21.780;2023-08-12T01:20:20;3.37;;;2.90;;
63975;SDS011;50167;47.958;21.780;2023-08-12T01:22:58;10.87;;;4.10;;
63975;SDS011;50167;47.958;21.780;2023-08-12T01:25:40;9.13;;;3.60;;
63975;SDS011;50167;47.958;21.780;2023-08-12T01:28:07;7.70;;;3.90;;
63975;SDS011;50167;47.958;21.780;2023-08-12T01:30:36;7.43;;;3.73;;
63975;SDS011;50167;47.958;21.780;2023-08-12T01:35:41;6.27;;;4.13;;
63975;SDS011;50167;47.958;21.780;2023-08-12T01:38:11;6.47;;;3.77;;
63975;SDS011;50167;47.958;21.780;2023-08-12T01:40:38;10.60;;;5.40;;
63975;SDS011;50167;47.958;21.780;2023-08-12T01:43:06;5.37;;;3.80;;
63975;SDS011;50167;47.958;21.780;2023-08-12T01:45:33;10.43;;;4.07;;
63975;SDS011;50167;47.958;21.780;2023-08-12T01:48:00;9.37;;;4.33;;
63975;SDS011;50167;47.958;21.780;2023-08-12T01:50:27;9.33;;;4.83;;
63975;SDS011;50167;47.958;21.780;2023-08-12T01:52:53;7.67;;;4.30;;
63975;SDS011;50167;47.958;21.780;2023-08-12T01:55:20;8.73;;;5.30;;
63975;SDS011;50167;47.958;21.780;2023-08-12T01:57:46;6.93;;;4.60;;
63975;SDS011;50167;47.958;21.780;2023-08-12T02:00:12;4.30;;;3.53;;
63975;SDS011;50167;47.958;21.780;2023-08-12T02:02:38;7.03;;;4.27;;
63975;SDS011;50167;47.958;21.780;2023-08-12T02:05:05;7.67;;;3.90;;
63975;SDS011;50167;47.958;21.780;2023-08-12T02:07:31;11.03;;;4.20;;
63975;SDS011;50167;47.958;21.780;2023-08-12T02:09:57;9.80;;;4.43;;
63975;SDS011;50167;47.958;21.780;2023-08-12T02:12:24;10.73;;;4.13;;
63975;SDS011;50167;47.958;21.780;2023-08-12T02:14:50;6.37;;;4.27;;
63975;SDS011;50167;47.958;21.780;2023-08-12T02:17:16;12.20;;;4.00;;
63975;SDS011;50167;47.958;21.780;2023-08-12T02:19:42;10.97;;;4.83;;
63975;SDS011;50167;47.958;21.780;2023-08-12T02:22:08;7.13;;;4.37;;
63975;SDS011;50167;47.958;21.780;2023-08-12T02:24:35;5.83;;;3.90;;
63975;SDS011;50167;47.958;21.780;2023-08-12T02:27:01;6.97;;;4.10;;
63975;SDS011;50167;47.958;21.780;2023-08-12T02:29:28;11.77;;;4.30;;
63975;SDS011;50167;47.958;21.780;2023-08-12T02:31:54;7.70;;;4.20;;
63975;SDS011;50167;47.958;21.780;2023-08-12T02:34:20;5.93;;;3.70;;
63975;SDS011;50167;47.958;21.780;2023-08-12T02:36:46;5.80;;;3.80;;
63975;SDS011;50167;47.958;21.780;2023-08-12T02:39:13;6.07;;;4.13;;
63975;SDS011;50167;47.958;21.780;2023-08-12T02:41:39;8.13;;;4.10;;
63975;SDS011;50167;47.958;21.780;2023-08-12T02:44:05;7.87;;;4.27;;
63975;SDS011;50167;47.958;21.780;2023-08-12T02:46:31;8.13;;;3.93;;
63975;SDS011;50167;47.958;21.780;2023-08-12T02:48:57;9.93;;;5.03;;
63975;SDS011;50167;47.958;21.780;2023-08-12T02:51:24;8.00;;;4.97;;
63975;SDS011;50167;47.958;21.780;2023-08-12T02:53:50;11.07;;;4.20;;
63975;SDS011;50167;47.958;21.780;2023-08-12T02:56:16;9.50;;;4.20;;
63975;SDS011;50167;47.958;21.780;2023-08-12T02:58:42;8.10;;;3.87;;
63975;SDS011;50167;47.958;21.780;2023-08-12T03:01:08;8.20;;;4.23;;
63975;SDS011;50167;47.958;21.780;2023-08-12T03:03:35;5.33;;;3.43;;
63975;SDS011;50167;47.958;21.780;2023-08-12T03:06:01;6.30;;;3.60;;
63975;SDS011;50167;47.958;21.780;2023-08-12T03:08:27;7.13;;;4.10;;
63975;SDS011;50167;47.958;21.780;2023-08-12T03:11:00;10.13;;;3.83;;
63975;SDS011;50167;47.958;21.780;2023-08-12T03:13:28;5.50;;;3.77;;
63975;SDS011;50167;47.958;21.780;2023-08-12T03:15:54;7.73;;;3.80;;
63975;SDS011;50167;47.958;21.780;2023-08-12T03:18:22;5.00;;;3.60;;
63975;SDS011;50167;47.958;21.780;2023-08-12T03:20:48;6.77;;;3.77;;
63975;SDS011;50167;47.958;21.780;2023-08-12T03:23:15;6.03;;;3.63;;
63975;SDS011;50167;47.958;21.780;2023-08-12T03:25:43;5.03;;;3.50;;
63975;SDS011;50167;47.958;21.780;2023-08-12T03:28:11;5.70;;;3.90;;
63975;SDS011;50167;47.958;21.780;2023-08-12T03:30:37;5.50;;;3.40;;
63975;SDS011;50167;47.958;21.780;2023-08-12T03:33:04;8.00;;;3.90;;
63975;SDS011;50167;47.958;21.780;2023-08-12T03:35:30;6.13;;;3.87;;
63975;SDS011;50167;47.958;21.780;2023-08-12T03:37:56;6.03;;;3.83;;
63975;SDS011;50167;47.958;21.780;2023-08-12T03:40:22;7.37;;;4.60;;
63975;SDS011;50167;47.958;21.780;2023-08-12T03:42:48;6.13;;;3.83;;
63975;SDS011;50167;47.958;21.780;2023-08-12T03:45:14;5.90;;;4.17;;
63975;SDS011;50167;47.958;21.780;2023-08-12T03:47:40;6.20;;;3.83;;
63975;SDS011;50167;47.958;21.780;2023-08-12T03:50:07;11.60;;;4.07;;
63975;SDS011;50167;47.958;21.780;2023-08-12T03:52:33;7.87;;;4.73;;
63975;SDS011;50167;47.958;21.780;2023-08-12T03:55:00;5.47;;;3.67;;
63975;SDS011;50167;47.958;21.780;2023-08-12T03:57:26;8.53;;;3.20;;
63975;SDS011;50167;47.958;21.780;2023-08-12T03:59:53;4.93;;;3.10;;
63975;SDS011;50167;47.958;21.780;2023-08-12T04:02:19;6.37;;;3.17;;
63975;SDS011;50167;47.958;21.780;2023-08-12T04:04:45;5.97;;;3.27;;
63975;SDS011;50167;47.958;21.780;2023-08-12T04:07:11;5.67;;;3.33;;
63975;SDS011;50167;47.958;21.780;2023-08-12T04:09:37;8.73;;;3.10;;
63975;SDS011;50167;47.958;21.780;2023-08-12T04:12:04;4.70;;;3.27;;
63975;SDS011;50167;47.958;21.780;2023-08-12T04:14:30;4.60;;;2.90;;
63975;SDS011;50167;47.958;21.780;2023-08-12T04:16:56;8.13;;;2.70;;
63975;SDS011;50167;47.958;21.780;2023-08-12T04:19:22;9.10;;;2.83;;
63975;SDS011;50167;47.958;21.780;2023-08-12T04:21:49;9.57;;;3.10;;
63975;SDS011;50167;47.958;21.780;2023-08-12T04:24:15;8.77;;;4.40;;
63975;SDS011;50167;47.958;21.780;2023-08-12T04:26:41;12.57;;;5.37;;
63975;SDS011;50167;47.958;21.780;2023-08-12T04:29:07;7.30;;;5.07;;
63975;SDS011;50167;47.958;21.780;2023-08-12T04:31:34;7.57;;;4.53;;
63975;SDS011;50167;47.958;21.780;2023-08-12T04:34:00;7.73;;;4.77;;
63975;SDS011;50167;47.958;21.780;2023-08-12T04:36:29;6.50;;;4.33;;
63975;SDS011;50167;47.958;21.780;2023-08-12T04:38:55;7.13;;;5.03;;
63975;SDS011;50167;47.958;21.780;2023-08-12T04:41:21;5.53;;;4.37;;
63975;SDS011;50167;47.958;21.780;2023-08-12T04:43:49;7.87;;;4.30;;
63975;SDS011;50167;47.958;21.780;2023-08-12T04:46:16;6.00;;;4.63;;
63975;SDS011;50167;47.958;21.780;2023-08-12T04:48:42;19.73;;;4.17;;
63975;SDS011;50167;47.958;21.780;2023-08-12T04:51:08;7.70;;;4.13;;
63975;SDS011;50167;47.958;21.780;2023-08-12T04:53:34;5.57;;;3.67;;
63975;SDS011;50167;47.958;21.780;2023-08-12T04:56:00;5.73;;;4.43;;
63975;SDS011;50167;47.958;21.780;2023-08-12T04:58:27;5.30;;;3.80;;
63975;SDS011;50167;47.958;21.780;2023-08-12T05:00:53;5.77;;;3.50;;
63975;SDS011;50167;47.958;21.780;2023-08-12T05:03:20;4.83;;;3.20;;
63975;SDS011;50167;47.958;21.780;2023-08-12T05:05:53;4.93;;;3.50;;
63975;SDS011;50167;47.958;21.780;2023-08-12T05:08:17;5.67;;;3.63;;
63975;SDS011;50167;47.958;21.780;2023-08-12T05:10:44;5.30;;;3.57;;
63975;SDS011;50167;47.958;21.780;2023-08-12T05:13:15;5.03;;;3.77;;
63975;SDS011;50167;47.958;21.780;2023-08-12T05:15:45;4.97;;;3.73;;
63975;SDS011;50167;47.958;21.780;2023-08-12T05:18:13;5.72;;;3.58;;
63975;SDS011;50167;47.958;21.780;2023-08-12T05:20:40;5.33;;;3.67;;
63975;SDS011;50167;47.958;21.780;2023-08-12T05:23:07;7.63;;;3.40;;
63975;SDS011;50167;47.958;21.780;2023-08-12T05:25:36;11.53;;;4.00;;
63975;SDS011;50167;47.958;21.780;2023-08-12T05:28:06;6.57;;;3.53;;
63975;SDS011;50167;47.958;21.780;2023-08-12T05:30:33;7.93;;;3.53;;
63975;SDS011;50167;47.958;21.780;2023-08-12T05:33:00;6.50;;;3.83;;
63975;SDS011;50167;47.958;21.780;2023-08-12T05:35:27;4.90;;;3.40;;
63975;SDS011;50167;47.958;21.780;2023-08-12T05:37:54;5.67;;;3.53;;
63975;SDS011;50167;47.958;21.780;2023-08-12T05:40:20;5.43;;;3.50;;
63975;SDS011;50167;47.958;21.780;2023-08-12T05:42:46;10.13;;;4.07;;
63975;SDS011;50167;47.958;21.780;2023-08-12T05:45:12;5.97;;;2.97;;
63975;SDS011;50167;47.958;21.780;2023-08-12T05:47:38;6.03;;;3.40;;
63975;SDS011;50167;47.958;21.780;2023-08-12T05:50:05;6.20;;;3.13;;
63975;SDS011;50167;47.958;21.780;2023-08-12T05:52:32;4.30;;;3.17;;
63975;SDS011;50167;47.958;21.780;2023-08-12T05:54:59;7.07;;;3.60;;
63975;SDS011;50167;47.958;21.780;2023-08-12T05:57:25;5.67;;;3.63;;
63975;SDS011;50167;47.958;21.780;2023-08-12T05:59:52;5.47;;;3.70;;
63975;SDS011;50167;47.958;21.780;2023-08-12T06:02:18;7.07;;;4.13;;
63975;SDS011;50167;47.958;21.780;2023-08-12T06:04:44;6.57;;;3.90;;
63975;SDS011;50167;47.958;21.780;2023-08-12T06:07:11;5.23;;;3.70;;
63975;SDS011;50167;47.958;21.780;2023-08-12T06:09:37;7.50;;;3.90;;
63975;SDS011;50167;47.958;21.780;2023-08-12T06:12:03;4.67;;;3.50;;
63975;SDS011;50167;47.958;21.780;2023-08-12T06:14:30;4.77;;;3.67;;
63975;SDS011;50167;47.958;21.780;2023-08-12T06:16:56;7.17;;;3.77;;
63975;SDS011;50167;47.958;21.780;2023-08-12T06:19:23;9.57;;;4.57;;
63975;SDS011;50167;47.958;21.780;2023-08-12T06:21:48;9.00;;;4.60;;
63975;SDS011;50167;47.958;21.780;2023-08-12T06:24:15;6.60;;;5.03;;
63975;SDS011;50167;47.958;21.780;2023-08-12T06:26:41;8.85;;;4.05;;
63975;SDS011;50167;47.958;21.780;2023-08-12T06:29:07;9.35;;;3.83;;
63975;SDS011;50167;47.958;21.780;2023-08-12T06:31:33;5.33;;;3.20;;
63975;SDS011;50167;47.958;21.780;2023-08-12T06:34:00;3.67;;;3.35;;
63975;SDS011;50167;47.958;21.780;2023-08-12T06:36:26;9.05;;;3.62;;
63975;SDS011;50167;47.958;21.780;2023-08-12T06:38:52;6.95;;;3.83;;
63975;SDS011;50167;47.958;21.780;2023-08-12T06:41:18;8.10;;;4.10;;
63975;SDS011;50167;47.958;21.780;2023-08-12T06:43:45;9.00;;;4.33;;
63975;SDS011;50167;47.958;21.780;2023-08-12T06:46:11;5.30;;;3.77;;
63975;SDS011;50167;47.958;21.780;2023-08-12T06:48:37;9.90;;;2.92;;
63975;SDS011;50167;47.958;21.780;2023-08-12T06:51:04;6.05;;;3.33;;
63975;SDS011;50167;47.958;21.780;2023-08-12T06:53:32;10.13;;;3.45;;
63975;SDS011;50167;47.958;21.780;2023-08-12T06:55:58;6.50;;;3.47;;
63975;SDS011;50167;47.958;21.780;2023-08-12T06:58:24;6.05;;;2.90;;
63975;SDS011;50167;47.958;21.780;2023-08-12T07:00:50;5.67;;;3.27;;
63975;SDS011;50167;47.958;21.780;2023-08-12T07:03:18;6.03;;;3.15;;
63975;SDS011;50167;47.958;21.780;2023-08-12T07:05:45;7.75;;;3.47;;
63975;SDS011;50167;47.958;21.780;2023-08-12T07:08:11;4.10;;;2.85;;
63975;SDS011;50167;47.958;21.780;2023-08-12T07:10:38;7.95;;;3.30;;
63975;SDS011;50167;47.958;21.780;2023-08-12T07:13:06;9.80;;;3.33;;
63975;SDS011;50167;47.958;21.780;2023-08-12T07:15:32;3.75;;;3.00;;
63975;SDS011;50167;47.958;21.780;2023-08-12T07:17:59;6.55;;;2.72;;
63975;SDS011;50167;47.958;21.780;2023-08-12T07:20:25;6.08;;;2.90;;
63975;SDS011;50167;47.958;21.780;2023-08-12T07:22:52;4.60;;;2.42;;
63975;SDS011;50167;47.958;21.780;2023-08-12T07:25:18;4.30;;;2.10;;
63975;SDS011;50167;47.958;21.780;2023-08-12T07:31:45;5.30;;;2.55;;
63975;SDS011;50167;47.958;21.780;2023-08-12T07:34:17;4.50;;;3.02;;
63975;SDS011;50167;47.958;21.780;2023-08-12T07:36:43;4.25;;;2.98;;
63975;SDS011;50167;47.958;21.780;2023-08-12T07:39:19;4.97;;;2.60;;
63975;SDS011;50167;47.958;21.780;2023-08-12T07:48:19;6.37;;;2.85;;
63975;SDS011;50167;47.958;21.780;2023-08-12T07:50:46;5.47;;;3.08;;
63975;SDS011;50167;47.958;21.780;2023-08-12T07:53:15;4.35;;;2.58;;
63975;SDS011;50167;47.958;21.780;2023-08-12T07:55:42;7.12;;;2.80;;
63975;SDS011;50167;47.958;21.780;2023-08-12T07:58:08;10.85;;;3.47;;
63975;SDS011;50167;47.958;21.780;2023-08-12T08:00:35;7.25;;;2.77;;
63975;SDS011;50167;47.958;21.780;2023-08-12T08:03:01;6.25;;;3.20;;
63975;SDS011;50167;47.958;21.780;2023-08-12T08:05:28;26.25;;;3.67;;
63975;SDS011;50167;47.958;21.780;2023-08-12T08:07:54;4.62;;;2.50;;
63975;SDS011;50167;47.958;21.780;2023-08-12T08:10:20;13.25;;;2.70;;
63975;SDS011;50167;47.958;21.780;2023-08-12T08:12:47;3.55;;;2.33;;
63975;SDS011;50167;47.958;21.780;2023-08-12T08:15:13;5.37;;;2.17;;
63975;SDS011;50167;47.958;21.780;2023-08-12T08:17:40;4.35;;;2.77;;
63975;SDS011;50167;47.958;21.780;2023-08-12T08:20:06;5.00;;;2.67;;
63975;SDS011;50167;47.958;21.780;2023-08-12T08:22:33;8.45;;;2.92;;
63975;SDS011;50167;47.958;21.780;2023-08-12T08:24:59;7.78;;;2.08;;
63975;SDS011;50167;47.958;21.780;2023-08-12T08:27:26;3.37;;;2.45;;
63975;SDS011;50167;47.958;21.780;2023-08-12T08:29:52;5.35;;;2.37;;
63975;SDS011;50167;47.958;21.780;2023-08-12T08:32:18;4.12;;;1.80;;
63975;SDS011;50167;47.958;21.780;2023-08-12T08:34:44;6.78;;;2.20;;
63975;SDS011;50167;47.958;21.780;2023-08-12T08:37:11;4.90;;;2.05;;
63975;SDS011;50167;47.958;21.780;2023-08-12T08:39:37;2.52;;;1.90;;
63975;SDS011;50167;47.958;21.780;2023-08-12T08:42:04;5.35;;;1.72;;
63975;SDS011;50167;47.958;21.780;2023-08-12T08:44:32;2.52;;;1.75;;
63975;SDS011;50167;47.958;21.780;2023-08-12T08:46:59;4.15;;;2.00;;
63975;SDS011;50167;47.958;21.780;2023-08-12T08:49:28;6.17;;;2.00;;
63975;SDS011;50167;47.958;21.780;2023-08-12T08:51:58;6.37;;;2.37;;
63975;SDS011;50167;47.958;21.780;2023-08-12T08:54:25;4.25;;;1.82;;
63975;SDS011;50167;47.958;21.780;2023-08-12T08:56:52;6.28;;;1.80;;
63975;SDS011;50167;47.958;21.780;2023-08-12T08:59:18;5.12;;;2.10;;
63975;SDS011;50167;47.958;21.780;2023-08-12T09:01:47;5.40;;;2.25;;
63975;SDS011;50167;47.958;21.780;2023-08-12T09:04:18;4.92;;;2.10;;
63975;SDS011;50167;47.958;21.780;2023-08-12T09:06:47;5.70;;;2.33;;
63975;SDS011;50167;47.958;21.780;2023-08-12T09:09:16;3.25;;;2.10;;
63975;SDS011;50167;47.958;21.780;2023-08-12T09:11:45;4.78;;;2.50;;
63975;SDS011;50167;47.958;21.780;2023-08-12T09:14:12;9.40;;;2.12;;
63975;SDS011;50167;47.958;21.780;2023-08-12T09:16:38;4.72;;;2.60;;
63975;SDS011;50167;47.958;21.780;2023-08-12T09:19:05;12.93;;;2.60;;
63975;SDS011;50167;47.958;21.780;2023-08-12T09:21:31;4.50;;;2.30;;
63975;SDS011;50167;47.958;21.780;2023-08-12T09:23:58;4.17;;;2.17;;
63975;SDS011;50167;47.958;21.780;2023-08-12T09:26:33;3.37;;;2.12;;
63975;SDS011;50167;47.958;21.780;2023-08-12T09:29:00;4.72;;;2.10;;
63975;SDS011;50167;47.958;21.780;2023-08-12T09:31:27;5.85;;;2.02;;
63975;SDS011;50167;47.958;21.780;2023-08-12T09:34:00;7.67;;;2.52;;
63975;SDS011;50167;47.958;21.780;2023-08-12T09:36:34;4.60;;;2.37;;
63975;SDS011;50167;47.958;21.780;2023-08-12T09:39:05;3.17;;;1.67;;
63975;SDS011;50167;47.958;21.780;2023-08-12T09:41:34;5.40;;;2.05;;
63975;SDS011;50167;47.958;21.780;2023-08-12T09:44:02;5.72;;;2.33;;
63975;SDS011;50167;47.958;21.780;2023-08-12T09:46:32;2.70;;;1.75;;
63975;SDS011;50167;47.958;21.780;2023-08-12T09:48:59;53.28;;;4.35;;
63975;SDS011;50167;47.958;21.780;2023-08-12T09:51:25;4.17;;;1.92;;
63975;SDS011;50167;47.958;21.780;2023-08-12T09:53:51;4.72;;;2.00;;
63975;SDS011;50167;47.958;21.780;2023-08-12T09:56:18;6.30;;;1.90;;
63975;SDS011;50167;47.958;21.780;2023-08-12T09:58:47;4.47;;;1.70;;
63975;SDS011;50167;47.958;21.780;2023-08-12T10:01:16;4.22;;;1.65;;
63975;SDS011;50167;47.958;21.780;2023-08-12T10:03:48;6.62;;;1.80;;
63975;SDS011;50167;47.958;21.780;2023-08-12T10:06:16;2.47;;;1.40;;
63975;SDS011;50167;47.958;21.780;2023-08-12T10:08:45;3.25;;;1.87;;
63975;SDS011;50167;47.958;21.780;2023-08-12T10:11:16;2.45;;;1.80;;
63975;SDS011;50167;47.958;21.780;2023-08-12T10:13:43;2.05;;;1.72;;
63975;SDS011;50167;47.958;21.780;2023-08-12T10:16:09;4.83;;;1.90;;
63975;SDS011;50167;47.958;21.780;2023-08-12T10:18:40;4.20;;;1.40;;
63975;SDS011;50167;47.958;21.780;2023-08-12T10:21:08;3.83;;;1.82;;
63975;SDS011;50167;47.958;21.780;2023-08-12T10:23:37;2.35;;;1.37;;
63975;SDS011;50167;47.958;21.780;2023-08-12T10:26:05;4.87;;;1.55;;
63975;SDS011;50167;47.958;21.780;2023-08-12T10:28:33;3.15;;;1.60;;
63975;SDS011;50167;47.958;21.780;2023-08-12T10:31:01;11.43;;;2.00;;
63975;SDS011;50167;47.958;21.780;2023-08-12T10:33:40;5.58;;;2.02;;
63975;SDS011;50167;47.958;21.780;2023-08-12T10:36:04;4.50;;;2.05;;
63975;SDS011;50167;47.958;21.780;2023-08-12T10:38:31;2.75;;;1.47;;
63975;SDS011;50167;47.958;21.780;2023-08-12T10:41:18;3.55;;;1.57;;
63975;SDS011;50167;47.958;21.780;2023-08-12T10:49:20;4.78;;;1.65;;
63975;SDS011;50167;47.958;21.780;2023-08-12T10:51:51;2.98;;;1.77;;
63975;SDS011;50167;47.958;21.780;2023-08-12T10:54:23;4.20;;;1.70;;
63975;SDS011;50167;47.958;21.780;2023-08-12T10:57:06;5.08;;;1.80;;
63975;SDS011;50167;47.958;21.780;2023-08-12T11:05:22;1.85;;;1.47;;
63975;SDS011;50167;47.958;21.780;2023-08-12T11:07:56;1.72;;;1.30;;
63975;SDS011;50167;47.958;21.780;2023-08-12T11:10:32;3.27;;;1.67;;
63975;SDS011;50167;47.958;21.780;2023-08-12T11:13:00;4.08;;;1.50;;
63975;SDS011;50167;47.958;21.780;2023-08-12T11:15:37;3.95;;;1.60;;
63975;SDS011;50167;47.958;21.780;2023-08-12T11:18:08;6.53;;;2.95;;
63975;SDS011;50167;47.958;21.780;2023-08-12T11:20:39;2.52;;;1.10;;
63975;SDS011;50167;47.958;21.780;2023-08-12T11:23:06;3.98;;;1.72;;
63975;SDS011;50167;47.958;21.780;2023-08-12T11:25:34;2.12;;;1.37;;
63975;SDS011;50167;47.958;21.780;2023-08-12T11:28:03;4.00;;;1.50;;
63975;SDS011;50167;47.958;21.780;2023-08-12T11:30:31;2.92;;;1.57;;
63975;SDS011;50167;47.958;21.780;2023-08-12T11:32:58;6.60;;;1.47;;
63975;SDS011;50167;47.958;21.780;2023-08-12T11:35:26;5.28;;;2.15;;
63975;SDS011;50167;47.958;21.780;2023-08-12T11:37:54;4.45;;;1.72;;
63975;SDS011;50167;47.958;21.780;2023-08-12T11:40:22;2.33;;;1.52;;
63975;SDS011;50167;47.958;21.780;2023-08-12T11:42:50;7.85;;;1.52;;
63975;SDS011;50167;47.958;21.780;2023-08-12T11:45:19;3.47;;;1.85;;
63975;SDS011;50167;47.958;21.780;2023-08-12T11:47:50;7.37;;;1.62;;
63975;SDS011;50167;47.958;21.780;2023-08-12T11:50:21;3.87;;;1.52;;
63975;SDS011;50167;47.958;21.780;2023-08-12T11:52:49;2.17;;;1.60;;
63975;SDS011;50167;47.958;21.780;2023-08-12T11:55:16;3.80;;;1.80;;
63975;SDS011;50167;47.958;21.780;2023-08-12T11:57:43;4.58;;;1.50;;
63975;SDS011;50167;47.958;21.780;2023-08-12T12:00:10;4.10;;;1.20;;
63975;SDS011;50167;47.958;21.780;2023-08-12T12:02:49;1.92;;;1.50;;
63975;SDS011;50167;47.958;21.780;2023-08-12T12:05:20;1.75;;;1.37;;
63975;SDS011;50167;47.958;21.780;2023-08-12T12:10:19;3.52;;;1.60;;
63975;SDS011;50167;47.958;21.780;2023-08-12T12:12:48;4.92;;;1.65;;
63975;SDS011;50167;47.958;21.780;2023-08-12T12:15:15;4.53;;;1.70;;
63975;SDS011;50167;47.958;21.780;2023-08-12T12:17:41;7.95;;;1.90;;
63975;SDS011;50167;47.958;21.780;2023-08-12T12:20:08;2.77;;;1.67;;
63975;SDS011;50167;47.958;21.780;2023-08-12T12:22:36;5.72;;;1.87;;
63975;SDS011;50167;47.958;21.780;2023-08-12T12:25:10;3.22;;;1.85;;
63975;SDS011;50167;47.958;21.780;2023-08-12T12:27:38;7.53;;;1.90;;
63975;SDS011;50167;47.958;21.780;2023-08-12T12:30:07;5.00;;;1.37;;
63975;SDS011;50167;47.958;21.780;2023-08-12T12:32:35;4.05;;;2.02;;
63975;SDS011;50167;47.958;21.780;2023-08-12T12:35:02;3.58;;;1.92;;
63975;SDS011;50167;47.958;21.780;2023-08-12T12:37:29;5.95;;;1.65;;
63975;SDS011;50167;47.958;21.780;2023-08-12T12:39:56;2.47;;;1.70;;
63975;SDS011;50167;47.958;21.780;2023-08-12T12:42:22;2.95;;;1.60;;
63975;SDS011;50167;47.958;21.780;2023-08-12T12:44:49;5.15;;;1.30;;
63975;SDS011;50167;47.958;21.780;2023-08-12T12:47:16;2.85;;;1.70;;
63975;SDS011;50167;47.958;21.780;2023-08-12T12:49:44;7.87;;;2.33;;
63975;SDS011;50167;47.958;21.780;2023-08-12T12:52:10;34.78;;;3.20;;
63975;SDS011;50167;47.958;21.780;2023-08-12T12:54:37;3.25;;;1.87;;
63975;SDS011;50167;47.958;21.780;2023-08-12T12:57:03;2.35;;;1.45;;
63975;SDS011;50167;47.958;21.780;2023-08-12T12:59:30;1.65;;;1.35;;
63975;SDS011;50167;47.958;21.780;2023-08-12T13:01:56;1.92;;;1.57;;
63975;SDS011;50167;47.958;21.780;2023-08-12T13:04:23;2.10;;;1.87;;
63975;SDS011;50167;47.958;21.780;2023-08-12T13:06:52;2.25;;;2.02;;
63975;SDS011;50167;47.958;21.780;2023-08-12T13:09:18;3.98;;;1.80;;
63975;SDS011;50167;47.958;21.780;2023-08-12T13:11:44;4.80;;;1.75;;
63975;SDS011;50167;47.958;21.780;2023-08-12T13:14:11;2.00;;;1.80;;
63975;SDS011;50167;47.958;21.780;2023-08-12T13:16:37;3.27;;;1.85;;
63975;SDS011;50167;47.958;21.780;2023-08-12T13:19:03;5.75;;;2.10;;
63975;SDS011;50167;47.958;21.780;2023-08-12T13:21:30;3.75;;;2.02;;
63975;SDS011;50167;47.958;21.780;2023-08-12T13:23:59;3.62;;;2.20;;
63975;SDS011;50167;47.958;21.780;2023-08-12T13:26:27;4.55;;;2.00;;
63975;SDS011;50167;47.958;21.780;2023-08-12T13:28:53;2.70;;;1.80;;
63975;SDS011;50167;47.958;21.780;2023-08-12T13:31:22;3.15;;;1.82;;
63975;SDS011;50167;47.958;21.780;2023-08-12T13:37:05;3.12;;;2.17;;
63975;SDS011;50167;47.958;21.780;2023-08-12T13:39:32;4.92;;;1.80;;
63975;SDS011;50167;47.958;21.780;2023-08-12T13:41:58;5.97;;;2.27;;
63975;SDS011;50167;47.958;21.780;2023-08-12T13:44:24;4.92;;;2.12;;
63975;SDS011;50167;47.958;21.780;2023-08-12T13:46:50;3.40;;;2.27;;
63975;SDS011;50167;47.958;21.780;2023-08-12T13:49:16;3.10;;;1.85;;
63975;SDS011;50167;47.958;21.780;2023-08-12T13:51:43;8.60;;;1.92;;
63975;SDS011;50167;47.958;21.780;2023-08-12T13:54:09;2.33;;;1.75;;
63975;SDS011;50167;47.958;21.780;2023-08-12T13:56:35;2.47;;;2.05;;
63975;SDS011;50167;47.958;21.780;2023-08-12T13:59:01;7.70;;;2.25;;
63975;SDS011;50167;47.958;21.780;2023-08-12T14:01:28;2.17;;;1.85;;
63975;SDS011;50167;47.958;21.780;2023-08-12T14:03:54;3.55;;;1.82;;
63975;SDS011;50167;47.958;21.780;2023-08-12T14:06:20;4.60;;;2.22;;
63975;SDS011;50167;47.958;21.780;2023-08-12T14:08:47;3.12;;;1.65;;
63975;SDS011;50167;47.958;21.780;2023-08-12T14:11:13;5.45;;;2.05;;
63975;SDS011;50167;47.958;21.780;2023-08-12T14:13:39;1.75;;;1.52;;
63975;SDS011;50167;47.958;21.780;2023-08-12T14:16:05;2.92;;;1.72;;
63975;SDS011;50167;47.958;21.780;2023-08-12T14:18:31;2.37;;;1.60;;
63975;SDS011;50167;47.958;21.780;2023-08-12T14:20:58;3.08;;;2.02;;
63975;SDS011;50167;47.958;21.780;2023-08-12T14:23:24;2.98;;;1.90;;
63975;SDS011;50167;47.958;21.780;2023-08-12T14:25:50;3.05;;;1.90;;
63975;SDS011;50167;47.958;21.780;2023-08-12T14:28:16;4.45;;;1.95;;
63975;SDS011;50167;47.958;21.780;2023-08-12T14:30:42;2.47;;;1.90;;
63975;SDS011;50167;47.958;21.780;2023-08-12T14:33:08;2.95;;;1.50;;
63975;SDS011;50167;47.958;21.780;2023-08-12T14:35:34;2.35;;;1.67;;
63975;SDS011;50167;47.958;21.780;2023-08-12T14:38:01;4.42;;;1.90;;
63975;SDS011;50167;47.958;21.780;2023-08-12T14:40:28;4.62;;;1.77;;
63975;SDS011;50167;47.958;21.780;2023-08-12T14:42:54;5.60;;;1.98;;
63975;SDS011;50167;47.958;21.780;2023-08-12T14:45:20;1.72;;;1.52;;
63975;SDS011;50167;47.958;21.780;2023-08-12T14:47:46;3.30;;;1.80;;
63975;SDS011;50167;47.958;21.780;2023-08-12T14:50:13;3.00;;;1.60;;
63975;SDS011;50167;47.958;21.780;2023-08-12T14:52:39;4.62;;;1.85;;
63975;SDS011;50167;47.958;21.780;2023-08-12T14:55:06;2.02;;;1.52;;
63975;SDS011;50167;47.958;21.780;2023-08-12T14:57:33;1.90;;;1.42;;
63975;SDS011;50167;47.958;21.780;2023-08-12T15:00:00;1.87;;;1.75;;
63975;SDS011;50167;47.958;21.780;2023-08-12T15:02:26;2.20;;;1.82;;
63975;SDS011;50167;47.958;21.780;2023-08-12T15:04:53;4.17;;;1.70;;